Time;durP1;ratioP1;P1;durP2;ratioP2;P2;SDS_P1;SDS_P2;PMS_P1;PMS_P2;Temp;Humidity;BMP_temperature;BMP_pressure;BME280_temperature;BME280_humidity;BME280_pressure;Samples;Min_cycle;Max_cycle;Signal;HPM_P1;HPM_P2
2023/09/14 00:16:16;;;;;;;2.20;1.25;;;22.90;66.90;;;;;;10468332;28;20104;-60
2023/09/14 00:21:16;;;;;;;3.22;1.40;;;22.90;67.00;;;;;;10494940;28;20114;-60
2023/09/14 00:26:17;;;;;;;2.55;0.98;;;22.90;67.10;;;;;;10486292;28;20028;-60
2023/09/14 00:31:18;;;;;;;3.17;1.85;;;22.90;67.00;;;;;;10485253;28;20558;-59
2023/09/14 00:36:18;;;;;;;1.90;1.10;;;22.80;67.00;;;;;;10452454;28;20044;-60
2023/09/14 00:41:19;;;;;;;3.50;1.20;;;22.80;67.00;;;;;;10452933;28;20032;-60
2023/09/14 00:46:20;;;;;;;1.75;1.15;;;22.80;67.00;;;;;;10452494;28;20570;-58
2023/09/14 00:51:21;;;;;;;3.17;1.38;;;22.80;67.10;;;;;;10476486;28;20055;-60
2023/09/14 00:56:23;;;;;;;1.58;1.15;;;22.80;67.00;;;;;;10493469;28;20037;-60
2023/09/14 01:01:23;;;;;;;3.63;1.30;;;22.80;67.00;;;;;;10451307;28;20033;-60
2023/09/14 01:06:25;;;;;;;2.80;1.02;;;22.80;66.90;;;;;;10469390;28;20024;-60
2023/09/14 01:11:25;;;;;;;3.17;1.38;;;22.80;67.00;;;;;;10493172;28;20029;-60
2023/09/14 01:16:35;;;;;;;2.80;1.08;;;22.80;67.00;;;;;;10492393;28;20040;-59
2023/09/14 01:22:01;;;;;;;3.75;1.63;;;22.80;67.10;;;;;;10458106;28;20033;-59
2023/09/14 01:27:03;;;;;;;2.42;1.23;;;22.80;66.90;;;;;;10487709;28;20112;-59
2023/09/14 01:32:04;;;;;;;2.17;1.30;;;22.80;66.80;;;;;;10475729;28;20036;-60
2023/09/14 01:37:06;;;;;;;3.58;1.55;;;22.80;66.90;;;;;;10450477;28;20040;-60
2023/09/14 01:42:07;;;;;;;2.35;1.20;;;22.80;66.90;;;;;;10469432;28;20036;-59
2023/09/14 01:47:07;;;;;;;3.10;1.45;;;22.70;66.90;;;;;;10491890;28;20469;-59
2023/09/14 01:52:09;;;;;;;3.08;1.58;;;22.70;66.90;;;;;;10491553;28;20032;-57
2023/09/14 01:57:09;;;;;;;3.03;1.23;;;22.70;66.90;;;;;;10472215;28;20705;-59
2023/09/14 02:02:10;;;;;;;1.90;1.10;;;22.70;66.90;;;;;;10450212;28;20031;-60
2023/09/14 02:07:11;;;;;;;3.15;1.17;;;22.70;66.80;;;;;;10448487;28;20025;-60
2023/09/14 02:12:11;;;;;;;3.15;1.63;;;22.70;66.90;;;;;;10449843;28;20033;-59
2023/09/14 02:17:12;;;;;;;1.58;1.10;;;22.70;66.90;;;;;;10473392;28;20045;-59
2023/09/14 02:22:13;;;;;;;1.40;1.02;;;22.60;67.00;;;;;;10483896;28;20555;-60
2023/09/14 02:27:14;;;;;;;2.08;1.10;;;22.70;66.90;;;;;;10449318;28;20029;-59
2023/09/14 02:32:14;;;;;;;2.20;0.98;;;22.70;66.80;;;;;;10449537;28;20422;-60
2023/09/14 02:37:15;;;;;;;2.75;1.08;;;22.60;66.80;;;;;;10449354;28;20036;-60
2023/09/14 02:42:16;;;;;;;2.20;0.90;;;22.60;66.70;;;;;;10452091;28;20037;-59
2023/09/14 02:47:16;;;;;;;3.35;1.30;;;22.60;66.60;;;;;;10452707;28;20025;-60
2023/09/14 02:52:17;;;;;;;2.67;1.05;;;22.60;67.10;;;;;;10457205;28;20502;-59
2023/09/14 02:57:18;;;;;;;1.63;1.10;;;22.60;66.40;;;;;;10456906;28;20041;-60
2023/09/14 03:02:19;;;;;;;2.83;1.10;;;22.60;66.60;;;;;;10456890;28;20025;-60
2023/09/14 03:07:19;;;;;;;3.22;1.23;;;22.60;66.30;;;;;;10487706;28;20388;-60
2023/09/14 03:12:20;;;;;;;2.72;1.40;;;22.60;66.30;;;;;;10496380;28;20021;-60
2023/09/14 03:17:21;;;;;;;1.90;1.00;;;22.50;66.20;;;;;;10497195;28;20044;-60
2023/09/14 03:22:22;;;;;;;2.55;1.10;;;22.50;65.90;;;;;;10488673;28;20029;-60
2023/09/14 03:27:22;;;;;;;2.53;0.90;;;22.50;66.00;;;;;;10455964;28;20075;-59
2023/09/14 03:32:23;;;;;;;2.17;1.45;;;22.50;65.90;;;;;;10482746;28;20029;-59
2023/09/14 03:37:24;;;;;;;4.28;1.15;;;22.50;66.20;;;;;;10481884;28;20078;-58
2023/09/14 03:42:24;;;;;;;3.15;1.27;;;22.50;66.60;;;;;;10466878;28;20476;-59
2023/09/14 03:47:25;;;;;;;2.35;1.05;;;22.60;66.60;;;;;;10468440;28;20025;-59
2023/09/14 03:52:26;;;;;;;2.22;1.10;;;22.60;66.80;;;;;;10476774;28;20076;-58
2023/09/14 03:57:29;;;;;;;2.55;0.77;;;22.60;66.80;;;;;;10467923;28;20025;-58
2023/09/14 04:02:30;;;;;;;2.22;1.00;;;22.60;66.90;;;;;;10466884;28;20031;-58
2023/09/14 04:07:31;;;;;;;5.50;1.60;;;22.60;66.60;;;;;;10452904;28;20522;-57
2023/09/14 04:12:32;;;;;;;2.92;1.65;;;22.60;66.30;;;;;;10450721;28;20035;-58
2023/09/14 04:17:33;;;;;;;2.05;0.80;;;22.50;66.20;;;;;;10476858;28;20044;-59
2023/09/14 04:22:33;;;;;;;3.03;1.25;;;22.50;66.30;;;;;;10481418;28;20025;-58
2023/09/14 04:27:34;;;;;;;5.00;1.65;;;22.50;66.20;;;;;;10462306;28;20033;-58
2023/09/14 04:32:35;;;;;;;3.35;1.20;;;22.40;66.20;;;;;;10500025;28;20024;-57
2023/09/14 04:37:36;;;;;;;3.08;1.15;;;22.40;66.10;;;;;;10490985;28;20036;-57
2023/09/14 04:42:36;;;;;;;1.90;1.35;;;22.40;66.30;;;;;;10491130;28;20028;-58
2023/09/14 04:47:37;;;;;;;1.95;1.15;;;22.40;66.20;;;;;;10490514;28;20566;-58
2023/09/14 04:52:38;;;;;;;1.58;1.02;;;22.40;66.20;;;;;;10489035;28;20065;-61
2023/09/14 04:57:38;;;;;;;4.07;1.55;;;22.40;65.70;;;;;;10451220;28;20051;-59
2023/09/14 05:02:40;;;;;;;2.83;0.90;;;22.40;66.40;;;;;;10451223;28;20028;-58
2023/09/14 05:07:43;;;;;;;3.67;1.05;;;22.50;66.00;;;;;;10450407;28;20037;-59
2023/09/14 05:12:43;;;;;;;5.20;1.08;;;22.60;66.00;;;;;;10450678;28;20548;-57
2023/09/14 05:17:44;;;;;;;3.15;1.38;;;22.60;66.90;;;;;;10478001;28;20044;-59
2023/09/14 05:22:45;;;;;;;5.43;1.30;;;22.50;67.30;;;;;;10479820;28;20037;-59
2023/09/14 05:27:46;;;;;;;34.97;3.42;;;22.50;66.60;;;;;;10450562;28;20033;-58
2023/09/14 05:32:47;;;;;;;7.28;2.17;;;22.60;66.30;;;;;;10467691;28;20025;-56
2023/09/14 05:37:47;;;;;;;11.43;1.92;;;22.60;65.80;;;;;;10450232;28;20083;-59
2023/09/14 05:42:48;;;;;;;11.30;3.05;;;22.60;65.90;;;;;;10450675;28;20496;-59
2023/09/14 05:47:49;;;;;;;11.05;1.92;;;22.60;65.90;;;;;;10450427;28;20041;-58
2023/09/14 05:52:50;;;;;;;9.00;2.33;;;22.50;65.50;;;;;;10450434;28;20025;-58
2023/09/14 05:57:54;;;;;;;8.02;1.88;;;22.50;66.20;;;;;;10450307;28;20495;-58
2023/09/14 06:02:55;;;;;;;10.65;2.55;;;22.40;65.50;;;;;;10477200;28;20032;-60
2023/09/14 06:07:55;;;;;;;11.43;2.45;;;22.40;65.50;;;;;;10477438;28;20103;-59
2023/09/14 06:12:56;;;;;;;12.43;2.58;;;22.40;66.10;;;;;;10491679;28;20028;-58
2023/09/14 06:17:57;;;;;;;12.48;2.30;;;22.40;66.00;;;;;;10464013;28;20044;-59
2023/09/14 06:22:58;;;;;;;12.35;2.47;;;22.30;65.10;;;;;;10454173;28;20037;-57
2023/09/14 06:27:59;;;;;;;9.38;2.42;;;22.30;65.10;;;;;;10461500;28;20028;-60
2023/09/14 06:33:00;;;;;;;9.20;1.95;;;22.30;65.40;;;;;;10474130;28;20033;-59
2023/09/14 06:38:04;;;;;;;9.25;2.10;;;22.30;65.40;;;;;;10455859;28;20454;-59
2023/09/14 06:43:04;;;;;;;7.05;1.65;;;22.30;65.50;;;;;;10457037;28;20037;-59
2023/09/14 06:48:05;;;;;;;9.60;1.70;;;22.20;66.00;;;;;;10455856;28;20032;-60
2023/09/14 06:53:08;;;;;;;4.93;1.27;;;22.20;65.40;;;;;;10455743;28;20029;-60
2023/09/14 06:58:09;;;;;;;12.35;2.35;;;22.20;66.00;;;;;;10456069;28;20042;-58
2023/09/14 07:03:10;;;;;;;4.43;2.08;;;22.20;65.90;;;;;;10456113;28;20179;-58
2023/09/14 07:08:10;;;;;;;5.85;1.70;;;22.20;65.70;;;;;;10454596;28;20035;-59
2023/09/14 07:13:11;;;;;;;3.85;1.35;;;22.20;65.90;;;;;;10456059;28;20384;-58
2023/09/14 07:18:29;;;;;;;4.47;1.90;;;22.20;66.00;;;;;;10486436;28;20049;-59
2023/09/14 07:23:30;;;;;;;5.40;2.00;;;22.20;66.10;;;;;;10478472;28;20135;-58
2023/09/14 07:28:31;;;;;;;5.90;1.70;;;22.20;66.30;;;;;;10467874;28;20063;-58
2023/09/14 07:33:32;;;;;;;4.60;1.85;;;22.20;66.20;;;;;;10460384;28;20055;-59
2023/09/14 07:38:33;;;;;;;3.85;1.80;;;22.20;66.40;;;;;;10454571;28;20022;-58
2023/09/14 07:43:33;;;;;;;8.70;2.28;;;22.20;66.60;;;;;;10454410;28;20021;-59
2023/09/14 07:48:35;;;;;;;5.88;1.58;;;22.20;66.60;;;;;;10453692;28;20082;-59
2023/09/14 07:53:36;;;;;;;5.15;1.50;;;22.20;66.70;;;;;;10454067;28;20108;-60
2023/09/14 07:58:37;;;;;;;4.90;1.60;;;22.20;66.70;;;;;;10453392;28;20108;-59
2023/09/14 08:03:38;;;;;;;3.08;1.45;;;22.20;66.80;;;;;;10453233;28;20229;-58
2023/09/14 08:08:38;;;;;;;3.53;1.13;;;22.20;66.70;;;;;;10452959;28;20045;-59
2023/09/14 08:13:39;;;;;;;3.95;1.35;;;22.20;66.80;;;;;;10452910;28;20033;-59
2023/09/14 08:18:40;;;;;;;2.00;1.08;;;22.20;66.70;;;;;;10487160;28;20572;-57
2023/09/14 08:23:41;;;;;;;2.55;1.20;;;22.20;66.80;;;;;;10472009;28;20039;-59
2023/09/14 08:28:42;;;;;;;2.10;1.10;;;22.30;66.60;;;;;;10466487;28;20669;-59
2023/09/14 08:33:42;;;;;;;3.03;1.33;;;22.30;66.50;;;;;;10453284;28;20435;-59
2023/09/14 08:38:43;;;;;;;5.55;1.67;;;22.30;66.40;;;;;;10449977;28;20025;-59
2023/09/14 08:43:45;;;;;;;4.35;1.85;;;22.30;66.20;;;;;;10448466;28;20036;-59
2023/09/14 08:48:48;;;;;;;6.72;2.30;;;22.40;66.10;;;;;;10469973;28;20059;-60
2023/09/14 08:53:49;;;;;;;3.92;1.92;;;22.40;66.10;;;;;;10458163;28;20033;-59
2023/09/14 08:58:51;;;;;;;3.72;1.83;;;22.40;66.20;;;;;;10475437;28;20040;-60
2023/09/14 09:03:52;;;;;;;5.07;1.73;;;22.40;66.20;;;;;;10454678;28;20029;-60
2023/09/14 09:08:57;;;;;;;4.28;2.40;;;22.40;66.20;;;;;;10448594;28;20025;-60
2023/09/14 09:13:58;;;;;;;2.92;1.92;;;22.40;66.30;;;;;;10448272;28;20064;-60
2023/09/14 09:19:04;;;;;;;3.90;1.98;;;22.50;66.30;;;;;;10451669;28;1062775;-60
2023/09/14 09:24:07;;;;;;;3.60;1.63;;;22.50;66.40;;;;;;10467788;28;20063;-59
2023/09/14 09:29:14;;;;;;;2.88;1.60;;;22.50;66.40;;;;;;10470806;28;20604;-60
2023/09/14 09:34:31;;;;;;;3.33;1.27;;;22.50;66.30;;;;;;10447493;28;20035;-60
2023/09/14 09:39:35;;;;;;;3.67;1.73;;;22.50;66.50;;;;;;10449745;28;20039;-60
2023/09/14 09:44:40;;;;;;;5.10;2.08;;;22.50;66.50;;;;;;10480445;28;20642;-59
2023/09/14 09:49:41;;;;;;;3.30;1.95;;;22.60;66.30;;;;;;10452361;28;20361;-58
2023/09/14 09:54:42;;;;;;;4.30;1.70;;;22.60;66.30;;;;;;10473948;28;20028;-60
2023/09/14 09:59:48;;;;;;;3.75;1.83;;;22.50;66.30;;;;;;10448789;28;20657;-59
2023/09/14 10:04:52;;;;;;;4.68;2.50;;;22.50;66.30;;;;;;10460975;28;20535;-59
2023/09/14 10:09:54;;;;;;;4.07;1.73;;;22.60;66.60;;;;;;10449026;28;20048;-59
2023/09/14 10:14:58;;;;;;;2.60;1.70;;;22.60;66.30;;;;;;10453295;28;20029;-60
2023/09/14 10:20:08;;;;;;;2.53;1.45;;;22.70;66.20;;;;;;10488983;28;20047;-58
2023/09/14 10:25:09;;;;;;;3.15;1.10;;;22.70;66.30;;;;;;10457799;28;20116;-59
2023/09/14 10:30:20;;;;;;;3.00;1.70;;;22.70;66.20;;;;;;10469286;28;20029;-59
2023/09/14 10:35:22;;;;;;;4.45;1.60;;;22.80;66.20;;;;;;10448097;28;20028;-60
2023/09/14 10:40:24;;;;;;;2.88;1.40;;;22.80;66.30;;;;;;10476658;28;20046;-59
2023/09/14 10:45:26;;;;;;;2.72;1.38;;;22.80;66.20;;;;;;10459214;28;20034;-58
2023/09/14 10:50:28;;;;;;;3.50;1.70;;;22.80;66.20;;;;;;10447992;28;20116;-60
2023/09/14 10:55:31;;;;;;;2.55;1.45;;;22.80;66.20;;;;;;10470674;28;20035;-60
2023/09/14 11:00:38;;;;;;;3.40;2.78;;;22.80;65.70;;;;;;10489625;28;20032;-59
2023/09/14 11:05:49;;;;;;;3.30;1.58;;;22.80;66.00;;;;;;10488965;28;20088;-58
2023/09/14 11:10:55;;;;;;;2.30;1.65;;;22.70;66.30;;;;;;10496786;28;20027;-59
2023/09/14 11:16:06;;;;;;;3.53;1.70;;;22.70;66.40;;;;;;10495709;28;20048;-56
2023/09/14 11:21:32;;;;;;;2.53;1.52;;;22.60;66.50;;;;;;10496334;28;20043;-59
2023/09/14 11:26:42;;;;;;;4.93;1.92;;;22.60;66.80;;;;;;10454616;28;20037;-60
2023/09/14 11:31:43;;;;;;;2.67;1.40;;;22.60;66.70;;;;;;10474366;28;20033;-60
2023/09/14 11:36:44;;;;;;;3.03;1.52;;;22.60;66.70;;;;;;10455132;28;20025;-59
2023/09/14 11:41:48;;;;;;;5.80;1.80;;;22.70;66.60;;;;;;10454194;28;20090;-59
2023/09/14 11:46:49;;;;;;;2.88;1.55;;;22.70;66.40;;;;;;10454175;28;20360;-59
2023/09/14 11:51:55;;;;;;;2.67;1.83;;;22.70;66.20;;;;;;10455154;28;20425;-60
2023/09/14 11:57:07;;;;;;;2.45;1.35;;;22.70;66.40;;;;;;10465299;28;20112;-59
2023/09/14 12:02:09;;;;;;;3.15;2.00;;;22.70;66.00;;;;;;10452826;28;20024;-60
2023/09/14 12:07:10;;;;;;;2.70;1.58;;;22.70;66.30;;;;;;10482798;28;20036;-58
2023/09/14 12:12:29;;;;;;;7.47;1.73;;;22.70;66.10;;;;;;10494716;28;20021;-60
2023/09/14 12:17:30;;;;;;;2.45;1.60;;;22.80;66.20;;;;;;10492955;28;20057;-60
2023/09/14 12:22:32;;;;;;;3.25;2.22;;;22.80;66.90;;;;;;10483149;28;20388;-60
2023/09/14 12:27:34;;;;;;;3.35;1.80;;;22.80;66.30;;;;;;10470053;28;20025;-59
2023/09/14 12:32:36;;;;;;;2.42;1.40;;;22.80;66.30;;;;;;10489131;28;20166;-59
2023/09/14 12:37:38;;;;;;;3.40;2.58;;;22.80;66.30;;;;;;10461297;28;20499;-59
2023/09/14 12:42:43;;;;;;;3.20;1.77;;;22.80;66.00;;;;;;10451497;28;20406;-59
2023/09/14 12:47:45;;;;;;;3.15;1.73;;;22.90;66.20;;;;;;10451754;28;20056;-58
2023/09/14 12:52:49;;;;;;;2.75;1.55;;;22.80;66.20;;;;;;10483588;28;20519;-59
2023/09/14 12:57:53;;;;;;;3.08;1.83;;;22.80;66.10;;;;;;10492591;28;20066;-59
2023/09/14 13:02:56;;;;;;;3.05;1.60;;;22.80;66.20;;;;;;10491922;28;20036;-58
2023/09/14 13:08:00;;;;;;;2.30;1.25;;;22.80;66.30;;;;;;10449860;28;20027;-60
2023/09/14 13:13:01;;;;;;;2.97;1.73;;;22.80;66.10;;;;;;10469098;28;20044;-59
2023/09/14 13:18:14;;;;;;;2.33;1.55;;;22.80;66.10;;;;;;10491273;28;20068;-60
2023/09/14 13:23:15;;;;;;;3.63;1.70;;;22.80;66.20;;;;;;10475300;28;20126;-60
2023/09/14 13:28:16;;;;;;;2.40;1.40;;;22.80;66.20;;;;;;10459397;28;20032;-58
2023/09/14 13:33:16;;;;;;;2.67;1.67;;;22.70;66.40;;;;;;10459581;28;20029;-60
2023/09/14 13:38:17;;;;;;;5.38;2.08;;;22.70;66.40;;;;;;10449885;28;20047;-59
2023/09/14 13:43:18;;;;;;;2.30;1.63;;;22.70;66.20;;;;;;10449404;28;20025;-59
2023/09/14 13:48:19;;;;;;;2.20;1.40;;;22.70;66.20;;;;;;10449969;28;20031;-59
2023/09/14 13:53:20;;;;;;;3.55;1.73;;;22.70;66.20;;;;;;10449266;28;20025;-59
2023/09/14 13:58:20;;;;;;;3.17;1.67;;;22.70;66.20;;;;;;10449379;28;20403;-59
2023/09/14 14:03:21;;;;;;;3.70;2.08;;;22.70;66.10;;;;;;10448833;28;20025;-59
2023/09/14 14:08:23;;;;;;;3.28;1.67;;;22.70;66.20;;;;;;10449052;28;20041;-60
2023/09/14 14:13:24;;;;;;;3.55;1.55;;;22.70;66.20;;;;;;10448430;28;20032;-59
2023/09/14 14:18:25;;;;;;;2.70;1.67;;;22.70;66.30;;;;;;10482594;28;20052;-59
2023/09/14 14:23:25;;;;;;;2.88;1.70;;;22.70;66.40;;;;;;10469680;28;20041;-61
2023/09/14 14:28:27;;;;;;;2.42;1.83;;;22.70;66.40;;;;;;10481238;28;20040;-60
2023/09/14 14:33:27;;;;;;;5.13;2.90;;;22.80;66.40;;;;;;10457866;28;20427;-60
2023/09/14 14:38:28;;;;;;;3.67;2.63;;;22.70;66.20;;;;;;10448158;28;20071;-59
2023/09/14 14:43:29;;;;;;;2.45;1.67;;;22.70;66.20;;;;;;10452850;28;20025;-59
2023/09/14 14:48:30;;;;;;;3.25;1.83;;;22.70;66.30;;;;;;10456325;28;20029;-59
2023/09/14 14:53:31;;;;;;;3.22;2.00;;;22.70;66.30;;;;;;10456799;28;20017;-60
2023/09/14 14:58:32;;;;;;;4.53;2.17;;;22.70;66.10;;;;;;10497720;28;20029;-59
2023/09/14 15:03:33;;;;;;;2.75;2.15;;;22.60;66.20;;;;;;10497028;28;20036;-59
2023/09/14 15:08:35;;;;;;;2.65;1.90;;;22.60;66.20;;;;;;10496588;28;20376;-60
2023/09/14 15:13:36;;;;;;;4.57;2.00;;;22.60;66.40;;;;;;10497461;28;20032;-59
2023/09/14 15:18:37;;;;;;;4.53;2.63;;;22.60;65.90;;;;;;10481107;28;20037;-60
2023/09/14 15:23:38;;;;;;;3.72;2.25;;;22.60;66.00;;;;;;10459347;28;20037;-60
2023/09/14 15:28:39;;;;;;;3.28;1.70;;;22.70;66.10;;;;;;10470598;28;20463;-59
2023/09/14 15:33:39;;;;;;;3.97;2.67;;;22.70;65.90;;;;;;10458585;28;20490;-60
2023/09/14 15:38:43;;;;;;;3.85;2.28;;;22.70;66.10;;;;;;10454434;28;20057;-58
2023/09/14 15:43:44;;;;;;;4.95;2.78;;;22.60;66.10;;;;;;10472872;28;20068;-61
2023/09/14 15:48:45;;;;;;;5.30;2.90;;;22.60;66.20;;;;;;10464496;28;20032;-60
2023/09/14 15:53:47;;;;;;;4.53;3.13;;;22.70;66.80;;;;;;10464513;28;20535;-61
2023/09/14 15:58:48;;;;;;;7.32;2.47;;;22.60;66.20;;;;;;10459105;28;20044;-59
2023/09/14 16:03:49;;;;;;;4.47;2.13;;;22.70;66.10;;;;;;10457367;28;20036;-57
2023/09/14 16:08:50;;;;;;;7.57;2.55;;;22.80;66.00;;;;;;10464662;28;20033;-57
2023/09/14 16:13:50;;;;;;;8.10;2.67;;;22.80;66.70;;;;;;10469163;28;20036;-58
2023/09/14 16:18:51;;;;;;;8.00;2.67;;;23.00;66.90;;;;;;10472419;28;20090;-57
2023/09/14 16:23:52;;;;;;;9.38;3.17;;;23.00;66.50;;;;;;10470755;28;20573;-56
2023/09/14 16:28:54;;;;;;;10.63;3.50;;;22.90;66.50;;;;;;10471207;28;20107;-57
2023/09/14 16:33:56;;;;;;;8.43;2.28;;;22.90;67.00;;;;;;10468848;28;20035;-57
2023/09/14 16:39:05;;;;;;;8.77;3.30;;;22.90;67.10;;;;;;10468132;28;20033;-57
2023/09/14 16:44:06;;;;;;;19.90;4.22;;;22.90;67.20;;;;;;10468279;28;20055;-58
2023/09/14 16:49:24;;;;;;;15.77;3.97;;;22.90;67.30;;;;;;10473080;28;20029;-58
2023/09/14 16:54:30;;;;;;;13.65;3.60;;;22.90;67.30;;;;;;10468966;28;20032;-58
2023/09/14 16:59:31;;;;;;;13.82;3.95;;;22.90;67.60;;;;;;10492115;28;20025;-58
2023/09/14 17:04:32;;;;;;;24.67;4.05;;;22.90;68.00;;;;;;10491921;28;20032;-58
2023/09/14 17:09:33;;;;;;;17.08;4.35;;;22.90;67.40;;;;;;10460538;28;20040;-58
2023/09/14 17:14:34;;;;;;;13.32;3.83;;;22.80;68.00;;;;;;10453297;28;20029;-59
2023/09/14 17:19:34;;;;;;;18.00;3.67;;;22.80;68.10;;;;;;10492405;28;20438;-60
2023/09/14 17:24:35;;;;;;;10.18;3.50;;;22.70;68.20;;;;;;10481608;28;20040;-58
2023/09/14 17:29:36;;;;;;;6.95;3.15;;;22.70;68.30;;;;;;10491042;28;20028;-59
2023/09/14 17:34:37;;;;;;;5.50;3.17;;;22.70;68.30;;;;;;10491905;28;20030;-58
2023/09/14 17:39:38;;;;;;;7.63;2.65;;;22.60;68.40;;;;;;10491736;28;20036;-59
2023/09/14 17:44:39;;;;;;;6.50;2.70;;;22.60;68.40;;;;;;10491797;28;20036;-59
2023/09/14 17:49:39;;;;;;;6.63;2.83;;;22.60;68.10;;;;;;10473090;28;20024;-59
2023/09/14 17:54:40;;;;;;;5.20;3.13;;;22.50;68.10;;;;;;10490916;28;20039;-59
2023/09/14 17:59:41;;;;;;;12.70;3.70;;;22.50;68.20;;;;;;10466325;28;20120;-59
2023/09/14 18:04:42;;;;;;;3.33;2.10;;;22.50;68.10;;;;;;10465278;28;20028;-59
2023/09/14 18:09:42;;;;;;;13.93;4.03;;;22.50;68.10;;;;;;10457751;28;20471;-60
2023/09/14 18:14:43;;;;;;;7.07;3.47;;;22.50;67.90;;;;;;10463508;28;20464;-59
2023/09/14 18:19:44;;;;;;;5.03;3.15;;;22.50;67.90;;;;;;10488630;28;20479;-57
2023/09/14 18:24:52;;;;;;;8.50;3.72;;;22.50;68.00;;;;;;10480569;28;20043;-59
2023/09/14 18:29:52;;;;;;;6.53;3.15;;;22.50;68.00;;;;;;10462757;28;20035;-59
2023/09/14 18:34:53;;;;;;;7.93;3.20;;;22.50;68.00;;;;;;10463478;28;20365;-57
2023/09/14 18:39:54;;;;;;;5.88;3.25;;;22.50;68.00;;;;;;10456472;28;20025;-59
2023/09/14 18:44:55;;;;;;;6.03;3.30;;;22.50;68.00;;;;;;10471131;28;20047;-59
2023/09/14 18:49:56;;;;;;;7.78;3.05;;;22.50;68.00;;;;;;10490713;28;20024;-59
2023/09/14 18:54:57;;;;;;;7.60;3.35;;;22.50;68.20;;;;;;10497949;28;20119;-58
2023/09/14 18:59:58;;;;;;;7.47;3.83;;;22.40;68.20;;;;;;10497777;28;20472;-59
2023/09/14 19:04:59;;;;;;;12.30;4.07;;;22.60;69.00;;;;;;10498045;28;20041;-59
2023/09/14 19:10:04;;;;;;;12.95;2.95;;;22.60;69.00;;;;;;10497642;28;20030;-60
2023/09/14 19:15:06;;;;;;;7.88;3.00;;;22.60;69.00;;;;;;10490989;28;20053;-59
2023/09/14 19:20:08;;;;;;;5.72;3.03;;;22.60;69.20;;;;;;10478152;28;20028;-59
2023/09/14 19:25:08;;;;;;;5.93;2.47;;;22.60;68.90;;;;;;10476547;28;20047;-59
2023/09/14 19:30:09;;;;;;;4.75;2.60;;;22.50;69.10;;;;;;10470979;28;20029;-58
2023/09/14 19:35:10;;;;;;;4.03;2.10;;;22.40;69.20;;;;;;10463606;28;20115;-58
2023/09/14 19:40:11;;;;;;;5.25;3.28;;;22.40;69.10;;;;;;10456543;28;20021;-58
2023/09/14 19:45:12;;;;;;;6.45;2.70;;;22.40;69.20;;;;;;10454325;28;20029;-58
2023/09/14 19:50:13;;;;;;;4.82;2.90;;;22.40;69.20;;;;;;10454777;28;20028;-58
2023/09/14 19:55:13;;;;;;;2.65;1.88;;;22.40;69.20;;;;;;10474097;28;20036;-59
2023/09/14 20:00:15;;;;;;;4.53;2.85;;;22.40;69.20;;;;;;10496464;28;20403;-59
2023/09/14 20:05:15;;;;;;;3.30;2.33;;;22.30;69.20;;;;;;10496224;28;20024;-58
2023/09/14 20:10:16;;;;;;;3.97;2.72;;;22.30;69.20;;;;;;10495504;28;20025;-58
2023/09/14 20:15:17;;;;;;;3.42;2.60;;;22.30;69.20;;;;;;10495454;28;20059;-58
2023/09/14 20:20:21;;;;;;;6.72;2.35;;;22.30;69.20;;;;;;10493852;28;20032;-59
2023/09/14 20:25:22;;;;;;;4.15;2.55;;;22.30;69.20;;;;;;10461902;28;20136;-58
2023/09/14 20:30:24;;;;;;;7.07;3.40;;;22.30;69.20;;;;;;10474743;28;20041;-59
2023/09/14 20:35:26;;;;;;;3.10;2.60;;;22.30;69.20;;;;;;10453575;28;20045;-59
2023/09/14 20:40:26;;;;;;;5.57;2.45;;;22.20;69.10;;;;;;10452187;28;20368;-59
2023/09/14 20:45:28;;;;;;;3.50;2.53;;;22.20;69.20;;;;;;10453119;28;20079;-59
2023/09/14 20:50:29;;;;;;;6.15;2.85;;;22.20;69.10;;;;;;10452576;28;20044;-59
2023/09/14 20:55:29;;;;;;;4.03;2.65;;;22.20;69.10;;;;;;10452730;28;20033;-59
2023/09/14 21:00:33;;;;;;;3.50;2.60;;;22.20;69.10;;;;;;10452279;28;20032;-59
2023/09/14 21:05:34;;;;;;;6.07;3.20;;;22.20;69.00;;;;;;10452401;28;20028;-59
2023/09/14 21:10:36;;;;;;;4.13;2.70;;;22.20;69.00;;;;;;10451774;28;20044;-59
2023/09/14 21:15:37;;;;;;;3.33;2.40;;;22.20;68.90;;;;;;10462703;28;20503;-59
2023/09/14 21:20:39;;;;;;;4.05;2.75;;;22.20;68.90;;;;;;10492848;28;20039;-59
2023/09/14 21:25:40;;;;;;;4.00;2.47;;;22.20;68.90;;;;;;10457155;28;20025;-58
2023/09/14 21:30:40;;;;;;;3.88;3.13;;;22.20;68.90;;;;;;10471524;28;20029;-58
2023/09/14 21:35:54;;;;;;;4.70;3.30;;;22.20;68.80;;;;;;10450885;28;20087;-58
2023/09/14 21:41:03;;;;;;;3.05;2.70;;;22.10;68.70;;;;;;10450283;28;20025;-59
2023/09/14 21:46:06;;;;;;;4.70;2.65;;;22.10;68.70;;;;;;10450308;28;20055;-59
2023/09/14 21:51:07;;;;;;;3.20;2.40;;;22.10;68.60;;;;;;10450128;28;20025;-59
2023/09/14 21:56:08;;;;;;;3.35;2.83;;;22.10;68.60;;;;;;10450587;28;20048;-58
2023/09/14 22:01:09;;;;;;;3.70;3.22;;;22.10;68.60;;;;;;10450177;28;20033;-58
2023/09/14 22:06:10;;;;;;;3.88;3.00;;;22.10;68.50;;;;;;10450393;28;20033;-58
2023/09/14 22:11:10;;;;;;;3.72;2.45;;;22.00;68.40;;;;;;10449736;28;20139;-59
2023/09/14 22:16:11;;;;;;;3.28;2.70;;;22.10;68.40;;;;;;10464906;28;20519;-58
2023/09/14 22:21:13;;;;;;;3.85;3.05;;;22.10;68.40;;;;;;10490899;28;20032;-58
2023/09/14 22:26:15;;;;;;;3.00;2.67;;;22.10;68.30;;;;;;10482520;28;20036;-59
2023/09/14 22:31:18;;;;;;;4.10;3.20;;;22.10;68.30;;;;;;10481670;28;20033;-59
2023/09/14 22:36:23;;;;;;;2.95;2.25;;;22.00;68.20;;;;;;10449804;28;20072;-58
2023/09/14 22:41:24;;;;;;;3.80;2.47;;;22.00;68.20;;;;;;10449024;28;20040;-59
2023/09/14 22:46:27;;;;;;;4.25;2.97;;;22.00;68.20;;;;;;10449650;28;20025;-58
2023/09/14 22:51:28;;;;;;;4.68;3.80;;;22.00;68.20;;;;;;10447682;28;20044;-59
2023/09/14 22:56:28;;;;;;;4.50;3.50;;;22.00;68.10;;;;;;10449549;28;20029;-58
2023/09/14 23:01:29;;;;;;;4.28;2.47;;;22.00;68.10;;;;;;10449083;28;20048;-59
2023/09/14 23:06:31;;;;;;;4.32;3.10;;;22.00;68.10;;;;;;10455585;28;20072;-58
2023/09/14 23:11:44;;;;;;;4.38;3.20;;;22.00;68.60;;;;;;10456557;28;20149;-59
2023/09/14 23:16:51;;;;;;;3.20;2.80;;;22.00;68.00;;;;;;10483641;28;20049;-59
2023/09/14 23:21:52;;;;;;;3.83;3.28;;;22.00;68.00;;;;;;10492732;28;20025;-58
2023/09/14 23:26:53;;;;;;;4.32;3.00;;;21.90;67.90;;;;;;10492450;28;20021;-58
2023/09/14 23:31:54;;;;;;;4.60;2.88;;;21.90;67.90;;;;;;10483147;28;20036;-59
2023/09/14 23:36:55;;;;;;;3.90;3.28;;;21.90;67.80;;;;;;10455534;28;20060;-58
2023/09/14 23:41:58;;;;;;;3.67;2.90;;;21.90;67.80;;;;;;10454864;28;20454;-59
2023/09/14 23:46:58;;;;;;;4.35;3.13;;;21.90;67.70;;;;;;10467752;28;20159;-59
2023/09/14 23:52:00;;;;;;;4.10;3.47;;;21.90;67.80;;;;;;10454877;28;20025;-59
2023/09/14 23:57:02;;;;;;;4.05;3.17;;;21.90;67.70;;;;;;10454914;28;20037;-58
